Bosporus — V2QY — position and weather

sailwx.info

Track history (hours):
 
Tides and Currents Weather Stations Pressure Air Temp Water Temp Dewpoint Dewpoint Depression Visibility Wind Speed Wind Dir Waves Ship Positions

Bosporus

Last reported at 2014-Oct-31 14:22 UTC. Time now 2014-Oct-31 15:11 UTC.
Position N 43°26' E 004°53'.

Length 100 m; draft 4.1 m.

Type: Cargo ship. MMSI: 304010802.

Date/timePositionNaut miles runAvg speedWind from/ knotsBaromVisibWave heightAir tempDewpointWater temp
2014-Oct-31 14:22N 43°26' E 004°53'0 0.0
2014-Oct-31 13:31N 43°26' E 004°53'0 0.0
2014-Oct-31 12:28N 43°26' E 004°53'0 0.0
2014-Oct-31 11:25N 43°26' E 004°53'0 0.0
2014-Oct-31 10:31N 43°26' E 004°53'0 0.0
2014-Oct-31 09:31N 43°26' E 004°53'0 0.0
2014-Oct-31 08:32N 43°26' E 004°53'6 6.5
2014-Oct-31 07:34N 43°21' E 004°59'8010.0
2014-Oct-30 23:34N 42°18' E 003°52'1210.8
2014-Oct-30 22:25N 42°09' E 003°40'2010.4
2014-Oct-30 20:27N 41°54' E 003°21'1011.1
2014-Oct-30 19:30N 41°47' E 003°11'1210.6
2014-Oct-30 18:20N 41°39' E 002°59'1012.1
2014-Oct-30 17:31N 41°32' E 002°49'1212.9
2014-Oct-30 16:33N 41°24' E 002°36'10 8.6
2014-Oct-30 15:25N 41°18' E 002°26'52 1.3
2014-Oct-28 23:07N 41°52' E 003°18'1010.3
2014-Oct-28 22:11N 41°60' E 003°26'710.7
2014-Oct-28 21:33N 42°05' E 003°32'1511.3
2014-Oct-28 20:14N 42°16' E 003°45'2211.0
2014-Oct-28 18:13N 42°33' E 004°04'1110.8
2014-Oct-28 17:14N 42°41' E 004°13'1210.7
2014-Oct-28 16:08N 42°50' E 004°23'710.5
2014-Oct-28 15:27N 42°56' E 004°30'910.4
2014-Oct-28 14:32N 43°03' E 004°38'20 9.0
2014-Oct-28 12:21N 43°19' E 004°55'6 7.5
2014-Oct-28 11:34N 43°24' E 004°53'1 1.2
2014-Oct-28 10:26N 43°26' E 004°53'0 0.0
2014-Oct-28 09:26N 43°26' E 004°53'0 0.0
2014-Oct-28 08:32N 43°26' E 004°53'0 0.0
2014-Oct-28 07:32N 43°26' E 004°53'0 0.0
2014-Oct-28 06:29N 43°26' E 004°53'0 0.0
2014-Oct-28 05:29N 43°26' E 004°53'0 0.0
2014-Oct-28 04:32N 43°26' E 004°53'0 0.0
2014-Oct-28 03:32N 43°26' E 004°53'0 0.0
2014-Oct-28 02:29N 43°26' E 004°53'3 3.7
2014-Oct-28 01:33N 43°23' E 004°56'1110.1
2014-Oct-28 00:31N 43°13' E 005°02'4610.3
2014-Oct-27 20:06N 42°40' E 004°20'1610.0
2014-Oct-27 18:29N 42°28' E 004°05'1010.5
2014-Oct-27 17:32N 42°21' E 003°56'1010.6
2014-Oct-27 16:34N 42°13' E 003°46'1110.0
2014-Oct-27 15:28N 42°06' E 003°36'1110.2
2014-Oct-27 14:22N 41°58' E 003°25'1011.2
2014-Oct-27 13:29N 41°50' E 003°17'1010.8
2014-Oct-27 12:33N 41°44' E 003°06'1211.2
2014-Oct-27 11:26N 41°37' E 002°52'1010.8
2014-Oct-27 10:33N 41°31' E 002°42'66 1.7
2014-Oct-25 20:30N 40°54' E 001°28'6110.3
2014-Oct-25 14:31N 41°28' E 002°37'21 9.7
2014-Oct-25 12:23N 41°41' E 002°59'12 9.7
2014-Oct-25 11:10N 41°48' E 003°12'5 8.5
2014-Oct-25 10:33N 41°52' E 003°15'1110.2
2014-Oct-25 09:31N 42°03' E 003°18'11 9.9
2014-Oct-25 08:25N 42°13' E 003°20'1110.8
2014-Oct-25 07:26N 42°24' E 003°22'1410.6
2014-Oct-25 06:09N 42°37' E 003°26'1810.3
2014-Oct-25 04:22N 42°55' E 003°30'66 9.2
2014-Oct-24 21:14N 43°19' E 004°54'5 7.3
2014-Oct-24 20:33N 43°24' E 004°54'2 1.9
2014-Oct-24 19:30N 43°26' E 004°53'0 0.0
2014-Oct-24 18:33N 43°26' E 004°53'0 0.0
2014-Oct-24 17:33N 43°26' E 004°53'0 0.0
2014-Oct-24 16:30N 43°26' E 004°53'0 0.0
2014-Oct-24 15:30N 43°26' E 004°53'0 0.0
2014-Oct-24 14:33N 43°26' E 004°53'0 0.0
2014-Oct-24 13:30N 43°26' E 004°53'0 0.0
2014-Oct-24 12:33N 43°26' E 004°53'0 0.0
2014-Oct-24 11:33N 43°26' E 004°53'0 0.0
2014-Oct-24 10:33N 43°26' E 004°53'0 0.0
2014-Oct-24 09:21N 43°26' E 004°53'0 0.0
2014-Oct-24 08:30N 43°26' E 004°53'0 0.0
2014-Oct-24 07:30N 43°26' E 004°53'0 0.0
2014-Oct-24 06:27N 43°26' E 004°53'0 0.0
2014-Oct-24 05:30N 43°26' E 004°53'0 0.0
2014-Oct-24 04:33N 43°26' E 004°53'0 0.0
2014-Oct-24 03:33N 43°26' E 004°53'2 1.5
2014-Oct-24 02:33N 43°25' E 004°55'0 0.5
2014-Oct-24 01:32N 43°25' E 004°56'0 0.0
2014-Oct-24 00:32N 43°25' E 004°56'0 0.0
2014-Oct-23 23:32N 43°25' E 004°56'0 0.0
2014-Oct-23 22:20N 43°25' E 004°56'0 0.0
2014-Oct-23 21:32N 43°25' E 004°56'0 0.0
2014-Oct-23 20:32N 43°25' E 004°56'0 0.0
2014-Oct-23 19:29N 43°25' E 004°56'0 0.0
2014-Oct-23 18:32N 43°25' E 004°56'0 0.0
2014-Oct-23 17:32N 43°25' E 004°56'0 0.0
2014-Oct-23 16:32N 43°25' E 004°56'0 0.0
2014-Oct-23 15:29N 43°25' E 004°56'0 0.0
2014-Oct-23 14:32N 43°25' E 004°56'0 0.0
2014-Oct-23 13:32N 43°25' E 004°56'0 0.0
2014-Oct-23 12:32N 43°25' E 004°56'0 0.0
2014-Oct-23 11:32N 43°25' E 004°56'0 0.0
2014-Oct-23 10:32N 43°25' E 004°56'0 0.0
2014-Oct-23 09:32N 43°25' E 004°56'0 0.0
2014-Oct-23 08:32N 43°25' E 004°56'5 5.3
2014-Oct-23 07:33N 43°20' E 004°56'88 8.6
2014-Oct-22 21:24N 42°32' E 003°15'8 7.4
2014-Oct-22 20:20N 42°24' E 003°16'4 5.1
2014-Oct-22 19:27N 42°21' E 003°20'5 4.6
2014-Oct-22 18:28N 42°17' E 003°21'6 5.9
2014-Oct-22 17:29N 42°11' E 003°19'7 6.5
2014-Oct-22 16:28N 42°04' E 003°18'7 7.0
2014-Oct-22 15:30N 41°58' E 003°16'13 6.3
2014-Oct-22 13:27N 41°46' E 003°09'10 9.3
2014-Oct-22 12:24N 41°40' E 002°59'12 9.8
2014-Oct-22 11:10N 41°33' E 002°46'  
Track history (hours):
 
Tides and Currents Weather Stations Pressure Air Temp Water Temp Dewpoint Dewpoint Depression Visibility Wind Speed Wind Dir Waves Ship Positions

Bosporus

Last reported at 2014-Oct-31 14:22 UTC. Time now 2014-Oct-31 15:11 UTC.
Position N 43°26' E 004°53'.

Length 100 m; draft 4.1 m.

Type: Cargo ship. MMSI: 304010802.

Date/timePositionNaut miles runAvg speedWind from/ knotsBaromVisibWave heightAir tempDewpointWater temp
2014-Oct-31 14:22N 43°26' E 004°53'0 0.0
2014-Oct-31 13:31N 43°26' E 004°53'0 0.0
2014-Oct-31 12:28N 43°26' E 004°53'0 0.0
2014-Oct-31 11:25N 43°26' E 004°53'0 0.0
2014-Oct-31 10:31N 43°26' E 004°53'0 0.0
2014-Oct-31 09:31N 43°26' E 004°53'0 0.0
2014-Oct-31 08:32N 43°26' E 004°53'6 6.5
2014-Oct-31 07:34N 43°21' E 004°59'8010.0
2014-Oct-30 23:34N 42°18' E 003°52'1210.8
2014-Oct-30 22:25N 42°09' E 003°40'2010.4
2014-Oct-30 20:27N 41°54' E 003°21'1011.1
2014-Oct-30 19:30N 41°47' E 003°11'1210.6
2014-Oct-30 18:20N 41°39' E 002°59'1012.1
2014-Oct-30 17:31N 41°32' E 002°49'1212.9
2014-Oct-30 16:33N 41°24' E 002°36'10 8.6
2014-Oct-30 15:25N 41°18' E 002°26'52 1.3
2014-Oct-28 23:07N 41°52' E 003°18'1010.3
2014-Oct-28 22:11N 41°60' E 003°26'710.7
2014-Oct-28 21:33N 42°05' E 003°32'1511.3
2014-Oct-28 20:14N 42°16' E 003°45'2211.0
2014-Oct-28 18:13N 42°33' E 004°04'1110.8
2014-Oct-28 17:14N 42°41' E 004°13'1210.7
2014-Oct-28 16:08N 42°50' E 004°23'710.5
2014-Oct-28 15:27N 42°56' E 004°30'910.4
2014-Oct-28 14:32N 43°03' E 004°38'20 9.0
2014-Oct-28 12:21N 43°19' E 004°55'6 7.5
2014-Oct-28 11:34N 43°24' E 004°53'1 1.2
2014-Oct-28 10:26N 43°26' E 004°53'0 0.0
2014-Oct-28 09:26N 43°26' E 004°53'0 0.0
2014-Oct-28 08:32N 43°26' E 004°53'0 0.0
2014-Oct-28 07:32N 43°26' E 004°53'0 0.0
2014-Oct-28 06:29N 43°26' E 004°53'0 0.0
2014-Oct-28 05:29N 43°26' E 004°53'0 0.0
2014-Oct-28 04:32N 43°26' E 004°53'0 0.0
2014-Oct-28 03:32N 43°26' E 004°53'0 0.0
2014-Oct-28 02:29N 43°26' E 004°53'3 3.7
2014-Oct-28 01:33N 43°23' E 004°56'1110.1
2014-Oct-28 00:31N 43°13' E 005°02'4610.3
2014-Oct-27 20:06N 42°40' E 004°20'1610.0
2014-Oct-27 18:29N 42°28' E 004°05'1010.5
2014-Oct-27 17:32N 42°21' E 003°56'1010.6
2014-Oct-27 16:34N 42°13' E 003°46'1110.0
2014-Oct-27 15:28N 42°06' E 003°36'1110.2
2014-Oct-27 14:22N 41°58' E 003°25'1011.2
2014-Oct-27 13:29N 41°50' E 003°17'1010.8
2014-Oct-27 12:33N 41°44' E 003°06'1211.2
2014-Oct-27 11:26N 41°37' E 002°52'1010.8
2014-Oct-27 10:33N 41°31' E 002°42'66 1.7
2014-Oct-25 20:30N 40°54' E 001°28'6110.3
2014-Oct-25 14:31N 41°28' E 002°37'21 9.7
2014-Oct-25 12:23N 41°41' E 002°59'12 9.7
2014-Oct-25 11:10N 41°48' E 003°12'5 8.5
2014-Oct-25 10:33N 41°52' E 003°15'1110.2
2014-Oct-25 09:31N 42°03' E 003°18'11 9.9
2014-Oct-25 08:25N 42°13' E 003°20'1110.8
2014-Oct-25 07:26N 42°24' E 003°22'1410.6
2014-Oct-25 06:09N 42°37' E 003°26'1810.3
2014-Oct-25 04:22N 42°55' E 003°30'66 9.2
2014-Oct-24 21:14N 43°19' E 004°54'5 7.3
2014-Oct-24 20:33N 43°24' E 004°54'2 1.9
2014-Oct-24 19:30N 43°26' E 004°53'0 0.0
2014-Oct-24 18:33N 43°26' E 004°53'0 0.0
2014-Oct-24 17:33N 43°26' E 004°53'0 0.0
2014-Oct-24 16:30N 43°26' E 004°53'0 0.0
2014-Oct-24 15:30N 43°26' E 004°53'0 0.0
2014-Oct-24 14:33N 43°26' E 004°53'0 0.0
2014-Oct-24 13:30N 43°26' E 004°53'0 0.0
2014-Oct-24 12:33N 43°26' E 004°53'0 0.0
2014-Oct-24 11:33N 43°26' E 004°53'0 0.0
2014-Oct-24 10:33N 43°26' E 004°53'0 0.0
2014-Oct-24 09:21N 43°26' E 004°53'0 0.0
2014-Oct-24 08:30N 43°26' E 004°53'0 0.0
2014-Oct-24 07:30N 43°26' E 004°53'0 0.0
2014-Oct-24 06:27N 43°26' E 004°53'0 0.0
2014-Oct-24 05:30N 43°26' E 004°53'0 0.0
2014-Oct-24 04:33N 43°26' E 004°53'0 0.0
2014-Oct-24 03:33N 43°26' E 004°53'2 1.5
2014-Oct-24 02:33N 43°25' E 004°55'0 0.5
2014-Oct-24 01:32N 43°25' E 004°56'0 0.0
2014-Oct-24 00:32N 43°25' E 004°56'0 0.0
2014-Oct-23 23:32N 43°25' E 004°56'0 0.0
2014-Oct-23 22:20N 43°25' E 004°56'0 0.0
2014-Oct-23 21:32N 43°25' E 004°56'0 0.0
2014-Oct-23 20:32N 43°25' E 004°56'0 0.0
2014-Oct-23 19:29N 43°25' E 004°56'0 0.0
2014-Oct-23 18:32N 43°25' E 004°56'0 0.0
2014-Oct-23 17:32N 43°25' E 004°56'0 0.0
2014-Oct-23 16:32N 43°25' E 004°56'0 0.0
2014-Oct-23 15:29N 43°25' E 004°56'0 0.0
2014-Oct-23 14:32N 43°25' E 004°56'0 0.0
2014-Oct-23 13:32N 43°25' E 004°56'0 0.0
2014-Oct-23 12:32N 43°25' E 004°56'0 0.0
2014-Oct-23 11:32N 43°25' E 004°56'0 0.0
2014-Oct-23 10:32N 43°25' E 004°56'0 0.0
2014-Oct-23 09:32N 43°25' E 004°56'0 0.0
2014-Oct-23 08:32N 43°25' E 004°56'5 5.3
2014-Oct-23 07:33N 43°20' E 004°56'88 8.6
2014-Oct-22 21:24N 42°32' E 003°15'8 7.4
2014-Oct-22 20:20N 42°24' E 003°16'4 5.1
2014-Oct-22 19:27N 42°21' E 003°20'5 4.6
2014-Oct-22 18:28N 42°17' E 003°21'6 5.9
2014-Oct-22 17:29N 42°11' E 003°19'7 6.5
2014-Oct-22 16:28N 42°04' E 003°18'7 7.0
2014-Oct-22 15:30N 41°58' E 003°16'13 6.3
2014-Oct-22 13:27N 41°46' E 003°09'10 9.3
2014-Oct-22 12:24N 41°40' E 002°59'12 9.8
2014-Oct-22 11:10N 41°33' E 002°46'  

Dump ship's entire track history